sensor_id;sensor_type;location;lat;lon;timestamp;temperature;humidity
13744;DHT22;6943;52.368;9.966;2022-11-03T00:01:01;7.90;1.00
13744;DHT22;6943;52.368;9.966;2022-11-03T00:03:26;7.80;1.00
13744;DHT22;6943;52.368;9.966;2022-11-03T00:05:52;7.70;1.00
13744;DHT22;6943;52.368;9.966;2022-11-03T00:08:40;7.70;1.00
13744;DHT22;6943;52.368;9.966;2022-11-03T00:11:13;7.80;1.00
13744;DHT22;6943;52.368;9.966;2022-11-03T00:13:41;7.90;1.00
13744;DHT22;6943;52.368;9.966;2022-11-03T00:16:08;8.00;99.90
13744;DHT22;6943;52.368;9.966;2022-11-03T00:18:35;8.10;43.30
13744;DHT22;6943;52.368;9.966;2022-11-03T00:21:03;8.10;1.00
13744;DHT22;6943;52.368;9.966;2022-11-03T00:23:31;8.30;1.00
13744;DHT22;6943;52.368;9.966;2022-11-03T00:28:33;8.60;1.00
13744;DHT22;6943;52.368;9.966;2022-11-03T00:31:00;8.60;1.00
13744;DHT22;6943;52.368;9.966;2022-11-03T00:33:33;8.60;1.00
13744;DHT22;6943;52.368;9.966;2022-11-03T00:35:59;8.70;1.00
13744;DHT22;6943;52.368;9.966;2022-11-03T00:38:26;8.60;1.00
13744;DHT22;6943;52.368;9.966;2022-11-03T00:40:53;8.60;1.00
13744;DHT22;6943;52.368;9.966;2022-11-03T00:43:20;8.60;1.00
13744;DHT22;6943;52.368;9.966;2022-11-03T00:45:46;8.60;1.00
13744;DHT22;6943;52.368;9.966;2022-11-03T00:48:12;8.60;1.00
13744;DHT22;6943;52.368;9.966;2022-11-03T00:51:00;8.60;1.00
13744;DHT22;6943;52.368;9.966;2022-11-03T00:53:27;8.60;1.00
13744;DHT22;6943;52.368;9.966;2022-11-03T00:55:52;8.50;54.00
13744;DHT22;6943;52.368;9.966;2022-11-03T00:58:18;8.60;18.80
13744;DHT22;6943;52.368;9.966;2022-11-03T01:00:43;8.60;1.00
13744;DHT22;6943;52.368;9.966;2022-11-03T01:03:09;8.60;1.00
13744;DHT22;6943;52.368;9.966;2022-11-03T01:05:39;8.40;1.00
13744;DHT22;6943;52.368;9.966;2022-11-03T01:08:23;8.60;1.00
13744;DHT22;6943;52.368;9.966;2022-11-03T01:10:49;8.30;1.00
13744;DHT22;6943;52.368;9.966;2022-11-03T01:13:33;8.60;1.00
13744;DHT22;6943;52.368;9.966;2022-11-03T01:15:58;8.60;40.10
13744;DHT22;6943;52.368;9.966;2022-11-03T01:18:24;8.60;1.00
13744;DHT22;6943;52.368;9.966;2022-11-03T01:20:54;8.70;1.00
13744;DHT22;6943;52.368;9.966;2022-11-03T01:23:20;8.80;1.00
13744;DHT22;6943;52.368;9.966;2022-11-03T01:25:45;10.10;1.00
13744;DHT22;6943;52.368;9.966;2022-11-03T01:28:11;8.80;1.00
13744;DHT22;6943;52.368;9.966;2022-11-03T01:30:36;8.90;1.00
13744;DHT22;6943;52.368;9.966;2022-11-03T01:33:02;8.90;1.00
13744;DHT22;6943;52.368;9.966;2022-11-03T01:35:27;8.90;1.00
13744;DHT22;6943;52.368;9.966;2022-11-03T01:37:53;9.00;99.90
13744;DHT22;6943;52.368;9.966;2022-11-03T01:40:21;9.00;99.90
13744;DHT22;6943;52.368;9.966;2022-11-03T01:42:46;9.00;99.90
13744;DHT22;6943;52.368;9.966;2022-11-03T01:45:12;9.00;99.90
13744;DHT22;6943;52.368;9.966;2022-11-03T01:47:37;9.00;99.90
13744;DHT22;6943;52.368;9.966;2022-11-03T01:50:09;9.10;99.90
13744;DHT22;6943;52.368;9.966;2022-11-03T01:52:51;9.00;99.90
13744;DHT22;6943;52.368;9.966;2022-11-03T01:55:21;9.00;99.90
13744;DHT22;6943;52.368;9.966;2022-11-03T01:57:53;9.00;99.90
13744;DHT22;6943;52.368;9.966;2022-11-03T02:00:20;9.00;99.90
13744;DHT22;6943;52.368;9.966;2022-11-03T02:02:46;9.00;1.00
13744;DHT22;6943;52.368;9.966;2022-11-03T02:05:12;8.90;1.00
13744;DHT22;6943;52.368;9.966;2022-11-03T02:07:50;8.90;1.00
13744;DHT22;6943;52.368;9.966;2022-11-03T02:10:17;8.90;1.00
13744;DHT22;6943;52.368;9.966;2022-11-03T02:12:43;8.90;1.00
13744;DHT22;6943;52.368;9.966;2022-11-03T02:15:11;8.90;1.00
13744;DHT22;6943;52.368;9.966;2022-11-03T02:17:39;8.90;1.00
13744;DHT22;6943;52.368;9.966;2022-11-03T02:20:08;8.90;1.00
13744;DHT22;6943;52.368;9.966;2022-11-03T02:25:35;8.90;1.00
13744;DHT22;6943;52.368;9.966;2022-11-03T02:28:03;8.90;1.00
13744;DHT22;6943;52.368;9.966;2022-11-03T02:30:35;8.90;1.00
13744;DHT22;6943;52.368;9.966;2022-11-03T02:33:19;8.80;1.00
13744;DHT22;6943;52.368;9.966;2022-11-03T02:36:02;8.90;1.00
13744;DHT22;6943;52.368;9.966;2022-11-03T02:38:31;8.90;1.00
13744;DHT22;6943;52.368;9.966;2022-11-03T02:41:00;9.00;1.00
13744;DHT22;6943;52.368;9.966;2022-11-03T02:43:28;9.00;99.90
13744;DHT22;6943;52.368;9.966;2022-11-03T02:45:54;9.00;1.00
13744;DHT22;6943;52.368;9.966;2022-11-03T02:48:20;8.90;1.00
13744;DHT22;6943;52.368;9.966;2022-11-03T02:50:46;8.90;1.00
13744;DHT22;6943;52.368;9.966;2022-11-03T02:53:14;8.90;1.00
13744;DHT22;6943;52.368;9.966;2022-11-03T02:56:02;8.90;1.00
13744;DHT22;6943;52.368;9.966;2022-11-03T02:58:47;8.90;1.00
13744;DHT22;6943;52.368;9.966;2022-11-03T03:01:35;8.80;1.00
13744;DHT22;6943;52.368;9.966;2022-11-03T03:04:12;8.70;1.00
13744;DHT22;6943;52.368;9.966;2022-11-03T03:07:04;8.40;1.00
13744;DHT22;6943;52.368;9.966;2022-11-03T03:10:09;8.70;1.00
13744;DHT22;6943;52.368;9.966;2022-11-03T03:12:39;8.70;1.00
13744;DHT22;6943;52.368;9.966;2022-11-03T03:15:07;8.60;53.00
13744;DHT22;6943;52.368;9.966;2022-11-03T03:20:23;8.70;1.00
13744;DHT22;6943;52.368;9.966;2022-11-03T03:22:59;8.70;1.00
13744;DHT22;6943;52.368;9.966;2022-11-03T03:25:33;8.70;1.00
13744;DHT22;6943;52.368;9.966;2022-11-03T03:28:10;8.70;99.90
13744;DHT22;6943;52.368;9.966;2022-11-03T03:30:38;8.60;99.90
13744;DHT22;6943;52.368;9.966;2022-11-03T03:33:07;8.60;99.90
13744;DHT22;6943;52.368;9.966;2022-11-03T03:35:35;8.60;99.90
13744;DHT22;6943;52.368;9.966;2022-11-03T03:38:11;8.60;99.90
13744;DHT22;6943;52.368;9.966;2022-11-03T03:40:40;8.50;99.90
13744;DHT22;6943;52.368;9.966;2022-11-03T03:43:09;8.40;99.90
13744;DHT22;6943;52.368;9.966;2022-11-03T03:45:37;9.90;1.00
13744;DHT22;6943;52.368;9.966;2022-11-03T03:48:03;8.30;1.00
13744;DHT22;6943;52.368;9.966;2022-11-03T03:50:33;8.30;1.00
13744;DHT22;6943;52.368;9.966;2022-11-03T03:53:01;8.10;1.00
13744;DHT22;6943;52.368;9.966;2022-11-03T03:55:36;8.20;1.00
13744;DHT22;6943;52.368;9.966;2022-11-03T03:58:06;8.20;1.00
13744;DHT22;6943;52.368;9.966;2022-11-03T04:00:32;8.20;1.00
13744;DHT22;6943;52.368;9.966;2022-11-03T04:02:58;8.10;1.00
13744;DHT22;6943;52.368;9.966;2022-11-03T04:05:24;8.10;1.00
13744;DHT22;6943;52.368;9.966;2022-11-03T04:07:50;8.20;1.00
13744;DHT22;6943;52.368;9.966;2022-11-03T04:10:18;8.20;1.00
13744;DHT22;6943;52.368;9.966;2022-11-03T04:12:44;8.30;1.00
13744;DHT22;6943;52.368;9.966;2022-11-03T04:15:28;8.20;1.00
13744;DHT22;6943;52.368;9.966;2022-11-03T04:18:13;8.20;3.40
13744;DHT22;6943;52.368;9.966;2022-11-03T04:20:57;8.50;1.00
13744;DHT22;6943;52.368;9.966;2022-11-03T04:23:41;8.10;1.00
13744;DHT22;6943;52.368;9.966;2022-11-03T04:26:14;8.10;1.00
13744;DHT22;6943;52.368;9.966;2022-11-03T04:28:40;8.10;99.90
13744;DHT22;6943;52.368;9.966;2022-11-03T04:31:14;8.10;99.90
13744;DHT22;6943;52.368;9.966;2022-11-03T04:33:41;8.10;1.00
13744;DHT22;6943;52.368;9.966;2022-11-03T04:36:22;8.20;99.90
13744;DHT22;6943;52.368;9.966;2022-11-03T04:38:49;8.30;99.90
13744;DHT22;6943;52.368;9.966;2022-11-03T04:41:17;8.20;99.90
13744;DHT22;6943;52.368;9.966;2022-11-03T04:43:44;8.20;99.90
13744;DHT22;6943;52.368;9.966;2022-11-03T04:46:14;8.20;99.90
13744;DHT22;6943;52.368;9.966;2022-11-03T04:48:41;7.50;99.90
13744;DHT22;6943;52.368;9.966;2022-11-03T04:51:16;8.10;1.00
13744;DHT22;6943;52.368;9.966;2022-11-03T04:53:52;8.00;1.00
13744;DHT22;6943;52.368;9.966;2022-11-03T04:56:20;8.00;1.00
13744;DHT22;6943;52.368;9.966;2022-11-03T04:58:46;8.00;1.00
13744;DHT22;6943;52.368;9.966;2022-11-03T05:01:14;7.90;1.00
13744;DHT22;6943;52.368;9.966;2022-11-03T05:03:41;10.20;1.00
13744;DHT22;6943;52.368;9.966;2022-11-03T05:06:13;7.80;1.00
13744;DHT22;6943;52.368;9.966;2022-11-03T05:08:39;7.70;1.00
13744;DHT22;6943;52.368;9.966;2022-11-03T05:11:36;7.60;51.10
13744;DHT22;6943;52.368;9.966;2022-11-03T05:14:02;7.60;99.90
13744;DHT22;6943;52.368;9.966;2022-11-03T05:16:30;7.50;99.90
13744;DHT22;6943;52.368;9.966;2022-11-03T05:18:55;7.50;99.90
13744;DHT22;6943;52.368;9.966;2022-11-03T05:21:24;7.50;99.90
13744;DHT22;6943;52.368;9.966;2022-11-03T05:23:58;7.50;99.90
13744;DHT22;6943;52.368;9.966;2022-11-03T05:26:28;7.40;99.90
13744;DHT22;6943;52.368;9.966;2022-11-03T05:29:03;7.90;99.90
13744;DHT22;6943;52.368;9.966;2022-11-03T05:31:34;7.50;99.90
13744;DHT22;6943;52.368;9.966;2022-11-03T05:34:15;7.60;99.90
13744;DHT22;6943;52.368;9.966;2022-11-03T05:36:45;7.70;99.90
13744;DHT22;6943;52.368;9.966;2022-11-03T05:39:25;7.80;99.90
13744;DHT22;6943;52.368;9.966;2022-11-03T05:41:53;7.80;37.70
13744;DHT22;6943;52.368;9.966;2022-11-03T05:44:35;7.80;47.60
13744;DHT22;6943;52.368;9.966;2022-11-03T05:47:02;7.90;13.80
13744;DHT22;6943;52.368;9.966;2022-11-03T05:49:29;8.00;1.00
13744;DHT22;6943;52.368;9.966;2022-11-03T05:51:55;8.20;1.00
13744;DHT22;6943;52.368;9.966;2022-11-03T05:54:26;8.10;1.00
13744;DHT22;6943;52.368;9.966;2022-11-03T05:56:55;8.10;1.00
13744;DHT22;6943;52.368;9.966;2022-11-03T05:59:24;8.20;1.00
13744;DHT22;6943;52.368;9.966;2022-11-03T06:01:51;8.70;1.00
13744;DHT22;6943;52.368;9.966;2022-11-03T06:04:24;8.20;1.00
13744;DHT22;6943;52.368;9.966;2022-11-03T06:06:57;8.20;1.00
13744;DHT22;6943;52.368;9.966;2022-11-03T06:09:25;8.10;1.00
13744;DHT22;6943;52.368;9.966;2022-11-03T06:11:54;8.10;1.00
13744;DHT22;6943;52.368;9.966;2022-11-03T06:14:25;8.20;1.00
13744;DHT22;6943;52.368;9.966;2022-11-03T06:16:59;8.20;1.00
13744;DHT22;6943;52.368;9.966;2022-11-03T06:19:29;8.20;1.00
13744;DHT22;6943;52.368;9.966;2022-11-03T06:22:10;8.20;1.00
13744;DHT22;6943;52.368;9.966;2022-11-03T06:24:36;8.20;1.00
13744;DHT22;6943;52.368;9.966;2022-11-03T06:27:02;8.20;1.00
13744;DHT22;6943;52.368;9.966;2022-11-03T06:29:29;8.20;1.00
13744;DHT22;6943;52.368;9.966;2022-11-03T06:31:56;8.30;1.00
13744;DHT22;6943;52.368;9.966;2022-11-03T06:34:42;8.40;1.00
13744;DHT22;6943;52.368;9.966;2022-11-03T06:37:19;8.40;1.00
13744;DHT22;6943;52.368;9.966;2022-11-03T06:39:45;8.40;1.00
13744;DHT22;6943;52.368;9.966;2022-11-03T06:42:13;8.00;1.00
13744;DHT22;6943;52.368;9.966;2022-11-03T06:44:43;8.50;1.00
13744;DHT22;6943;52.368;9.966;2022-11-03T06:47:26;8.50;1.00
13744;DHT22;6943;52.368;9.966;2022-11-03T06:49:55;8.60;1.00
13744;DHT22;6943;52.368;9.966;2022-11-03T06:52:36;8.60;99.90
13744;DHT22;6943;52.368;9.966;2022-11-03T06:57:35;8.80;1.00
13744;DHT22;6943;52.368;9.966;2022-11-03T07:00:19;8.80;1.00
13744;DHT22;6943;52.368;9.966;2022-11-03T07:03:08;8.80;1.00
13744;DHT22;6943;52.368;9.966;2022-11-03T07:05:35;8.90;1.00
13744;DHT22;6943;52.368;9.966;2022-11-03T07:08:05;8.90;1.00
13744;DHT22;6943;52.368;9.966;2022-11-03T07:10:35;8.90;1.00
13744;DHT22;6943;52.368;9.966;2022-11-03T07:13:13;8.90;1.00
13744;DHT22;6943;52.368;9.966;2022-11-03T07:15:39;9.00;1.00
13744;DHT22;6943;52.368;9.966;2022-11-03T07:18:34;9.00;1.00
13744;DHT22;6943;52.368;9.966;2022-11-03T07:21:14;9.20;1.00
13744;DHT22;6943;52.368;9.966;2022-11-03T07:23:45;9.20;99.90
13744;DHT22;6943;52.368;9.966;2022-11-03T07:26:11;9.30;99.90
13744;DHT22;6943;52.368;9.966;2022-11-03T07:28:37;9.30;99.90
13744;DHT22;6943;52.368;9.966;2022-11-03T07:31:15;9.40;99.90
13744;DHT22;6943;52.368;9.966;2022-11-03T07:33:40;9.40;99.90
13744;DHT22;6943;52.368;9.966;2022-11-03T07:36:08;9.50;99.90
13744;DHT22;6943;52.368;9.966;2022-11-03T07:38:35;9.60;99.90
13744;DHT22;6943;52.368;9.966;2022-11-03T07:41:00;9.60;99.90
13744;DHT22;6943;52.368;9.966;2022-11-03T07:43:52;9.60;99.90
13744;DHT22;6943;52.368;9.966;2022-11-03T07:46:20;9.70;73.40
13744;DHT22;6943;52.368;9.966;2022-11-03T07:48:53;9.70;78.20
13744;DHT22;6943;52.368;9.966;2022-11-03T07:51:21;9.80;99.90
13744;DHT22;6943;52.368;9.966;2022-11-03T07:53:48;9.90;2.10
13744;DHT22;6943;52.368;9.966;2022-11-03T07:56:19;10.00;1.00
13744;DHT22;6943;52.368;9.966;2022-11-03T07:58:48;10.00;1.00
13744;DHT22;6943;52.368;9.966;2022-11-03T08:01:26;10.10;1.00
13744;DHT22;6943;52.368;9.966;2022-11-03T08:03:56;10.10;1.00
13744;DHT22;6943;52.368;9.966;2022-11-03T08:06:23;10.20;1.00
13744;DHT22;6943;52.368;9.966;2022-11-03T08:08:48;10.30;1.00
13744;DHT22;6943;52.368;9.966;2022-11-03T08:11:14;10.40;1.00
13744;DHT22;6943;52.368;9.966;2022-11-03T08:13:39;10.50;1.00
13744;DHT22;6943;52.368;9.966;2022-11-03T08:16:05;10.40;1.00
13744;DHT22;6943;52.368;9.966;2022-11-03T08:18:31;10.50;1.00
13744;DHT22;6943;52.368;9.966;2022-11-03T08:20:56;10.60;1.00
13744;DHT22;6943;52.368;9.966;2022-11-03T08:23:22;10.60;1.00
13744;DHT22;6943;52.368;9.966;2022-11-03T08:25:47;10.70;1.00
13744;DHT22;6943;52.368;9.966;2022-11-03T08:28:13;10.70;1.00
13744;DHT22;6943;52.368;9.966;2022-11-03T08:30:39;10.80;1.00
13744;DHT22;6943;52.368;9.966;2022-11-03T08:33:04;10.90;1.00
13744;DHT22;6943;52.368;9.966;2022-11-03T08:35:30;11.00;1.00
13744;DHT22;6943;52.368;9.966;2022-11-03T08:37:55;11.20;99.90
13744;DHT22;6943;52.368;9.966;2022-11-03T08:40:21;11.30;99.90
13744;DHT22;6943;52.368;9.966;2022-11-03T08:42:46;11.70;99.90
13744;DHT22;6943;52.368;9.966;2022-11-03T08:45:12;12.10;1.00
13744;DHT22;6943;52.368;9.966;2022-11-03T08:47:37;12.60;1.00
13744;DHT22;6943;52.368;9.966;2022-11-03T08:50:04;13.10;1.00
13744;DHT22;6943;52.368;9.966;2022-11-03T08:52:30;13.40;1.00
13744;DHT22;6943;52.368;9.966;2022-11-03T08:54:56;13.50;1.00
13744;DHT22;6943;52.368;9.966;2022-11-03T08:57:21;13.70;99.90
13744;DHT22;6943;52.368;9.966;2022-11-03T08:59:47;13.40;1.00
13744;DHT22;6943;52.368;9.966;2022-11-03T09:02:13;13.20;1.00
13744;DHT22;6943;52.368;9.966;2022-11-03T09:04:38;13.00;1.00
13744;DHT22;6943;52.368;9.966;2022-11-03T09:07:04;12.20;1.00
13744;DHT22;6943;52.368;9.966;2022-11-03T09:09:29;13.10;1.00
13744;DHT22;6943;52.368;9.966;2022-11-03T09:11:55;12.00;1.00
13744;DHT22;6943;52.368;9.966;2022-11-03T09:14:20;13.30;1.00
13744;DHT22;6943;52.368;9.966;2022-11-03T09:16:46;13.60;1.00
13744;DHT22;6943;52.368;9.966;2022-11-03T09:19:11;14.10;1.00
13744;DHT22;6943;52.368;9.966;2022-11-03T09:21:37;13.90;1.00
13744;DHT22;6943;52.368;9.966;2022-11-03T09:24:02;13.90;1.00
13744;DHT22;6943;52.368;9.966;2022-11-03T09:26:28;13.90;1.00
13744;DHT22;6943;52.368;9.966;2022-11-03T09:28:54;13.90;1.00
13744;DHT22;6943;52.368;9.966;2022-11-03T09:31:19;14.10;1.00
13744;DHT22;6943;52.368;9.966;2022-11-03T09:33:45;14.10;99.90
13744;DHT22;6943;52.368;9.966;2022-11-03T09:36:10;14.20;99.90
13744;DHT22;6943;52.368;9.966;2022-11-03T09:38:36;14.00;1.00
13744;DHT22;6943;52.368;9.966;2022-11-03T09:41:03;13.90;1.00
13744;DHT22;6943;52.368;9.966;2022-11-03T09:43:31;13.40;1.00
13744;DHT22;6943;52.368;9.966;2022-11-03T09:45:57;13.10;1.00
13744;DHT22;6943;52.368;9.966;2022-11-03T09:48:22;12.80;1.00
13744;DHT22;6943;52.368;9.966;2022-11-03T09:50:51;12.70;1.00
13744;DHT22;6943;52.368;9.966;2022-11-03T09:53:17;12.70;1.00
13744;DHT22;6943;52.368;9.966;2022-11-03T09:55:43;12.80;1.00
13744;DHT22;6943;52.368;9.966;2022-11-03T09:58:13;12.80;1.00
13744;DHT22;6943;52.368;9.966;2022-11-03T10:00:39;12.80;1.00
13744;DHT22;6943;52.368;9.966;2022-11-03T10:03:05;13.00;1.00
13744;DHT22;6943;52.368;9.966;2022-11-03T10:05:30;13.00;1.00
13744;DHT22;6943;52.368;9.966;2022-11-03T10:08:04;13.20;1.00
13744;DHT22;6943;52.368;9.966;2022-11-03T10:10:32;13.20;1.00
13744;DHT22;6943;52.368;9.966;2022-11-03T10:13:00;13.30;1.00
13744;DHT22;6943;52.368;9.966;2022-11-03T10:15:26;13.40;1.00
13744;DHT22;6943;52.368;9.966;2022-11-03T10:17:53;13.30;1.00
13744;DHT22;6943;52.368;9.966;2022-11-03T10:20:21;13.30;1.00
13744;DHT22;6943;52.368;9.966;2022-11-03T10:22:50;13.50;1.00
13744;DHT22;6943;52.368;9.966;2022-11-03T10:25:35;13.40;1.00
13744;DHT22;6943;52.368;9.966;2022-11-03T10:30:54;13.10;1.00
13744;DHT22;6943;52.368;9.966;2022-11-03T10:33:29;12.00;1.00
13744;DHT22;6943;52.368;9.966;2022-11-03T10:35:57;13.00;1.00
13744;DHT22;6943;52.368;9.966;2022-11-03T10:38:30;13.10;1.00
13744;DHT22;6943;52.368;9.966;2022-11-03T10:41:10;13.20;1.00
13744;DHT22;6943;52.368;9.966;2022-11-03T10:43:37;13.20;1.00
13744;DHT22;6943;52.368;9.966;2022-11-03T10:46:19;13.30;1.00
13744;DHT22;6943;52.368;9.966;2022-11-03T10:49:00;13.20;1.00
13744;DHT22;6943;52.368;9.966;2022-11-03T10:51:26;13.20;1.00
13744;DHT22;6943;52.368;9.966;2022-11-03T10:53:53;13.20;1.00
13744;DHT22;6943;52.368;9.966;2022-11-03T10:56:19;13.20;1.00
13744;DHT22;6943;52.368;9.966;2022-11-03T10:58:44;13.30;1.00
13744;DHT22;6943;52.368;9.966;2022-11-03T11:01:10;13.30;1.00
13744;DHT22;6943;52.368;9.966;2022-11-03T11:03:40;13.40;1.00
13744;DHT22;6943;52.368;9.966;2022-11-03T11:06:20;13.40;1.00
13744;DHT22;6943;52.368;9.966;2022-11-03T11:08:49;13.30;1.00
13744;DHT22;6943;52.368;9.966;2022-11-03T11:11:18;13.30;1.00
13744;DHT22;6943;52.368;9.966;2022-11-03T11:14:18;13.30;1.00
13744;DHT22;6943;52.368;9.966;2022-11-03T11:16:51;13.30;1.00
13744;DHT22;6943;52.368;9.966;2022-11-03T11:19:16;13.30;1.00
13744;DHT22;6943;52.368;9.966;2022-11-03T11:24:10;13.30;1.00
13744;DHT22;6943;52.368;9.966;2022-11-03T11:26:36;13.40;1.00
13744;DHT22;6943;52.368;9.966;2022-11-03T11:36:36;13.60;1.00
13744;DHT22;6943;52.368;9.966;2022-11-03T11:39:12;13.60;1.00
13744;DHT22;6943;52.368;9.966;2022-11-03T11:49:46;13.80;1.00
13744;DHT22;6943;52.368;9.966;2022-11-03T11:52:11;14.00;1.00
13744;DHT22;6943;52.368;9.966;2022-11-03T11:54:40;14.00;1.00
13744;DHT22;6943;52.368;9.966;2022-11-03T11:57:18;13.90;1.00
13744;DHT22;6943;52.368;9.966;2022-11-03T11:59:45;14.10;1.00
13744;DHT22;6943;52.368;9.966;2022-11-03T12:02:21;14.00;1.00
13744;DHT22;6943;52.368;9.966;2022-11-03T12:04:53;13.90;1.00
13744;DHT22;6943;52.368;9.966;2022-11-03T12:07:32;13.70;1.00
13744;DHT22;6943;52.368;9.966;2022-11-03T12:10:28;13.60;1.00
13744;DHT22;6943;52.368;9.966;2022-11-03T12:12:56;13.70;1.00
13744;DHT22;6943;52.368;9.966;2022-11-03T12:15:54;13.70;1.00
13744;DHT22;6943;52.368;9.966;2022-11-03T12:18:40;13.80;1.00
13744;DHT22;6943;52.368;9.966;2022-11-03T12:21:11;13.90;1.00
13744;DHT22;6943;52.368;9.966;2022-11-03T12:23:44;14.00;1.00
13744;DHT22;6943;52.368;9.966;2022-11-03T12:26:17;13.90;1.00
13744;DHT22;6943;52.368;9.966;2022-11-03T12:28:43;13.90;1.00
13744;DHT22;6943;52.368;9.966;2022-11-03T12:31:09;13.80;1.00
13744;DHT22;6943;52.368;9.966;2022-11-03T12:33:35;13.70;1.00
13744;DHT22;6943;52.368;9.966;2022-11-03T12:36:00;13.80;1.00
13744;DHT22;6943;52.368;9.966;2022-11-03T12:38:26;13.70;1.00
13744;DHT22;6943;52.368;9.966;2022-11-03T12:40:52;13.70;1.00
13744;DHT22;6943;52.368;9.966;2022-11-03T12:43:18;13.80;1.00
13744;DHT22;6943;52.368;9.966;2022-11-03T12:45:44;13.70;1.00
13744;DHT22;6943;52.368;9.966;2022-11-03T12:48:09;13.70;1.00
13744;DHT22;6943;52.368;9.966;2022-11-03T12:50:35;13.60;1.00
13744;DHT22;6943;52.368;9.966;2022-11-03T12:53:02;13.70;1.00
13744;DHT22;6943;52.368;9.966;2022-11-03T12:55:28;13.70;1.00
13744;DHT22;6943;52.368;9.966;2022-11-03T12:57:54;14.80;1.00
13744;DHT22;6943;52.368;9.966;2022-11-03T13:00:19;13.70;1.00
13744;DHT22;6943;52.368;9.966;2022-11-03T13:02:45;13.70;1.00
13744;DHT22;6943;52.368;9.966;2022-11-03T13:05:11;13.70;1.00
13744;DHT22;6943;52.368;9.966;2022-11-03T13:07:42;13.60;1.60
13744;DHT22;6943;52.368;9.966;2022-11-03T13:10:08;13.70;22.00
13744;DHT22;6943;52.368;9.966;2022-11-03T13:12:34;13.60;35.60
13744;DHT22;6943;52.368;9.966;2022-11-03T13:15:06;13.70;42.40
13744;DHT22;6943;52.368;9.966;2022-11-03T13:17:32;13.60;35.10
13744;DHT22;6943;52.368;9.966;2022-11-03T13:19:58;13.50;99.90
13744;DHT22;6943;52.368;9.966;2022-11-03T13:22:23;13.50;99.90
13744;DHT22;6943;52.368;9.966;2022-11-03T13:24:49;13.50;99.90
13744;DHT22;6943;52.368;9.966;2022-11-03T13:27:14;14.00;99.90
13744;DHT22;6943;52.368;9.966;2022-11-03T13:29:40;13.60;5.10
13744;DHT22;6943;52.368;9.966;2022-11-03T13:32:06;13.60;1.00
13744;DHT22;6943;52.368;9.966;2022-11-03T13:34:32;13.60;1.00
13744;DHT22;6943;52.368;9.966;2022-11-03T13:36:58;13.00;1.00
13744;DHT22;6943;52.368;9.966;2022-11-03T13:39:23;13.50;1.00
13744;DHT22;6943;52.368;9.966;2022-11-03T13:41:49;13.50;1.00
13744;DHT22;6943;52.368;9.966;2022-11-03T13:44:15;13.40;1.00
13744;DHT22;6943;52.368;9.966;2022-11-03T13:46:40;13.40;1.00
13744;DHT22;6943;52.368;9.966;2022-11-03T13:49:06;13.30;41.80
13744;DHT22;6943;52.368;9.966;2022-11-03T13:51:31;14.00;90.90
13744;DHT22;6943;52.368;9.966;2022-11-03T13:53:57;13.30;93.00
13744;DHT22;6943;52.368;9.966;2022-11-03T13:56:23;13.30;81.40
13744;DHT22;6943;52.368;9.966;2022-11-03T13:58:49;14.00;99.90
13744;DHT22;6943;52.368;9.966;2022-11-03T14:01:14;13.20;91.60
13744;DHT22;6943;52.368;9.966;2022-11-03T14:03:40;13.20;99.90
13744;DHT22;6943;52.368;9.966;2022-11-03T14:06:06;13.20;99.90
13744;DHT22;6943;52.368;9.966;2022-11-03T14:08:31;13.10;99.90
13744;DHT22;6943;52.368;9.966;2022-11-03T14:10:57;13.10;99.90
13744;DHT22;6943;52.368;9.966;2022-11-03T14:13:22;13.00;99.90
13744;DHT22;6943;52.368;9.966;2022-11-03T14:15:48;13.00;99.90
13744;DHT22;6943;52.368;9.966;2022-11-03T14:18:13;13.00;99.90
13744;DHT22;6943;52.368;9.966;2022-11-03T14:20:39;13.00;99.90
13744;DHT22;6943;52.368;9.966;2022-11-03T14:23:04;12.90;99.90
13744;DHT22;6943;52.368;9.966;2022-11-03T14:25:30;12.90;99.90
13744;DHT22;6943;52.368;9.966;2022-11-03T14:27:55;12.80;99.90
13744;DHT22;6943;52.368;9.966;2022-11-03T14:30:21;12.80;99.90
13744;DHT22;6943;52.368;9.966;2022-11-03T14:32:46;12.80;99.90
13744;DHT22;6943;52.368;9.966;2022-11-03T14:35:12;12.80;99.90
13744;DHT22;6943;52.368;9.966;2022-11-03T14:37:37;12.90;99.90
13744;DHT22;6943;52.368;9.966;2022-11-03T14:40:04;12.90;94.90
13744;DHT22;6943;52.368;9.966;2022-11-03T14:42:30;12.90;93.00
13744;DHT22;6943;52.368;9.966;2022-11-03T14:44:56;12.90;50.00
13744;DHT22;6943;52.368;9.966;2022-11-03T14:47:21;12.90;35.80
13744;DHT22;6943;52.368;9.966;2022-11-03T14:49:47;12.90;42.20
13744;DHT22;6943;52.368;9.966;2022-11-03T14:52:14;12.90;50.80
13744;DHT22;6943;52.368;9.966;2022-11-03T14:54:39;12.90;25.90
13744;DHT22;6943;52.368;9.966;2022-11-03T14:57:05;12.80;91.00
13744;DHT22;6943;52.368;9.966;2022-11-03T14:59:31;12.80;99.90
13744;DHT22;6943;52.368;9.966;2022-11-03T15:01:57;12.80;99.90
13744;DHT22;6943;52.368;9.966;2022-11-03T15:04:23;12.80;99.90
13744;DHT22;6943;52.368;9.966;2022-11-03T15:06:49;12.80;99.90
13744;DHT22;6943;52.368;9.966;2022-11-03T15:09:15;12.80;99.90
13744;DHT22;6943;52.368;9.966;2022-11-03T15:11:41;12.70;99.90
13744;DHT22;6943;52.368;9.966;2022-11-03T15:14:08;12.80;99.90
13744;DHT22;6943;52.368;9.966;2022-11-03T15:16:33;12.70;99.90
13744;DHT22;6943;52.368;9.966;2022-11-03T15:19:02;12.70;99.90
13744;DHT22;6943;52.368;9.966;2022-11-03T15:21:28;12.60;99.90
13744;DHT22;6943;52.368;9.966;2022-11-03T15:23:54;12.70;99.90
13744;DHT22;6943;52.368;9.966;2022-11-03T15:26:19;12.60;99.90
13744;DHT22;6943;52.368;9.966;2022-11-03T15:28:45;12.70;99.90
13744;DHT22;6943;52.368;9.966;2022-11-03T15:31:10;12.60;99.90
13744;DHT22;6943;52.368;9.966;2022-11-03T15:33:36;12.60;99.90
13744;DHT22;6943;52.368;9.966;2022-11-03T15:36:01;12.50;99.90
13744;DHT22;6943;52.368;9.966;2022-11-03T15:38:29;12.60;99.90
13744;DHT22;6943;52.368;9.966;2022-11-03T15:40:55;12.20;99.90
13744;DHT22;6943;52.368;9.966;2022-11-03T15:43:42;12.40;99.90
13744;DHT22;6943;52.368;9.966;2022-11-03T15:46:08;12.40;99.90
13744;DHT22;6943;52.368;9.966;2022-11-03T15:48:34;12.30;99.90
13744;DHT22;6943;52.368;9.966;2022-11-03T15:51:00;13.10;1.00
13744;DHT22;6943;52.368;9.966;2022-11-03T15:53:25;12.20;1.00
13744;DHT22;6943;52.368;9.966;2022-11-03T15:55:51;12.10;1.00
13744;DHT22;6943;52.368;9.966;2022-11-03T15:58:16;12.30;1.00
13744;DHT22;6943;52.368;9.966;2022-11-03T16:00:42;12.10;1.00
13744;DHT22;6943;52.368;9.966;2022-11-03T16:03:07;11.60;1.00
13744;DHT22;6943;52.368;9.966;2022-11-03T16:05:33;12.10;1.00
13744;DHT22;6943;52.368;9.966;2022-11-03T16:07:58;11.80;1.00
13744;DHT22;6943;52.368;9.966;2022-11-03T16:10:24;12.00;1.00
13744;DHT22;6943;52.368;9.966;2022-11-03T16:12:50;12.00;1.00
13744;DHT22;6943;52.368;9.966;2022-11-03T16:15:15;12.00;1.00
13744;DHT22;6943;52.368;9.966;2022-11-03T16:17:41;12.00;1.00
13744;DHT22;6943;52.368;9.966;2022-11-03T16:20:08;12.00;1.00
13744;DHT22;6943;52.368;9.966;2022-11-03T16:22:34;12.10;1.00
13744;DHT22;6943;52.368;9.966;2022-11-03T16:24:59;12.50;1.00
13744;DHT22;6943;52.368;9.966;2022-11-03T16:27:25;12.10;1.00
13744;DHT22;6943;52.368;9.966;2022-11-03T16:29:50;12.10;1.00
13744;DHT22;6943;52.368;9.966;2022-11-03T16:32:17;12.10;1.00
13744;DHT22;6943;52.368;9.966;2022-11-03T16:34:43;12.10;1.00
13744;DHT22;6943;52.368;9.966;2022-11-03T16:37:09;12.00;1.00
13744;DHT22;6943;52.368;9.966;2022-11-03T16:39:34;12.00;1.00
13744;DHT22;6943;52.368;9.966;2022-11-03T16:42:00;12.60;1.00
13744;DHT22;6943;52.368;9.966;2022-11-03T16:44:27;11.30;1.00
13744;DHT22;6943;52.368;9.966;2022-11-03T16:46:53;12.00;1.00
13744;DHT22;6943;52.368;9.966;2022-11-03T16:49:19;11.90;1.00